Time;durP1;ratioP1;P1;durP2;ratioP2;P2;SDS_P1;SDS_P2;PMS_P1;PMS_P2;Temp;Humidity;BMP_temperature;BMP_pressure;BME280_temperature;BME280_humidity;BME280_pressure;Samples;Min_cycle;Max_cycle;Signal;HPM_P1;HPM_P2
2022/05/09 00:01:55;;;;;;;0.73;0.60;;;19.60;63.70;;;;;;5106472;27;45238;-81
2022/05/09 00:04:24;;;;;;;1.63;0.75;;;19.60;63.60;;;;;;5107257;27;45346;-82
2022/05/09 00:06:51;;;;;;;1.48;0.90;;;19.60;63.50;;;;;;5108597;27;47067;-81
2022/05/09 00:09:19;;;;;;;1.40;0.80;;;19.60;63.40;;;;;;5106481;27;45181;-82
2022/05/09 00:11:46;;;;;;;1.02;0.85;;;19.60;63.40;;;;;;5110134;27;45106;-82
2022/05/09 00:14:14;;;;;;;1.63;0.80;;;19.60;63.50;;;;;;5113646;27;45255;-81
2022/05/09 00:16:41;;;;;;;1.85;0.98;;;19.60;63.50;;;;;;5106705;27;47950;-82
2022/05/09 00:19:10;;;;;;;1.40;0.82;;;19.60;63.60;;;;;;5106159;27;45345;-81
2022/05/09 00:21:41;;;;;;;1.60;0.85;;;19.60;63.40;;;;;;5107027;27;45279;-81
2022/05/09 00:24:13;;;;;;;2.15;0.80;;;19.60;63.30;;;;;;5108337;27;45450;-81
2022/05/09 00:26:39;;;;;;;1.67;0.90;;;19.60;63.10;;;;;;5105521;27;46112;-82
2022/05/09 00:29:07;;;;;;;2.20;1.08;;;19.60;63.10;;;;;;5104869;27;45877;-81
2022/05/09 00:31:33;;;;;;;1.38;0.80;;;19.60;63.10;;;;;;5108324;27;45176;-81
2022/05/09 00:34:00;;;;;;;2.75;1.10;;;19.60;63.00;;;;;;5110540;27;45423;-81
2022/05/09 00:36:27;;;;;;;1.95;1.05;;;19.60;62.90;;;;;;5110568;27;47913;-81
2022/05/09 00:38:55;;;;;;;1.00;0.60;;;19.60;63.10;;;;;;5108750;27;45300;-81
2022/05/09 00:41:37;;;;;;;1.15;0.70;;;19.60;62.70;;;;;;5102758;27;45368;-81
2022/05/09 00:44:06;;;;;;;2.13;1.05;;;19.60;62.80;;;;;;5109133;27;45273;-82
2022/05/09 00:46:34;;;;;;;2.67;0.93;;;19.60;62.70;;;;;;5110933;27;48555;-81
2022/05/09 00:49:06;;;;;;;1.48;1.00;;;19.60;62.60;;;;;;5108515;27;45150;-81
2022/05/09 00:51:34;;;;;;;2.67;1.00;;;19.60;62.50;;;;;;5107558;27;45199;-82
2022/05/09 00:54:03;;;;;;;1.77;1.05;;;19.60;63.30;;;;;;5107948;27;45456;-81
2022/05/09 00:56:35;;;;;;;2.35;0.80;;;19.60;62.20;;;;;;5109341;27;47344;-81
2022/05/09 00:59:06;;;;;;;3.05;0.93;;;19.60;62.30;;;;;;5110466;27;45308;-81
2022/05/09 01:01:33;;;;;;;1.48;0.73;;;19.60;62.10;;;;;;5110326;27;45153;-82
2022/05/09 01:04:07;;;;;;;1.73;0.90;;;19.60;61.90;;;;;;5110574;27;45120;-81
2022/05/09 01:06:34;;;;;;;1.65;0.85;;;19.60;61.90;;;;;;5114139;27;47335;-82
2022/05/09 01:09:03;;;;;;;2.50;1.05;;;19.60;62.20;;;;;;5106784;27;45340;-81
2022/05/09 01:11:30;;;;;;;2.03;1.02;;;19.60;62.10;;;;;;5110918;27;45243;-81
2022/05/09 01:14:04;;;;;;;1.67;1.02;;;19.60;62.80;;;;;;5108158;27;45344;-81
2022/05/09 01:16:33;;;;;;;1.42;0.95;;;19.60;61.90;;;;;;5108964;27;48330;-81
2022/05/09 01:19:07;;;;;;;2.00;0.90;;;19.60;61.90;;;;;;5107445;27;45332;-81
2022/05/09 01:21:36;;;;;;;1.65;0.80;;;19.60;61.70;;;;;;5106918;27;45333;-81
2022/05/09 01:24:05;;;;;;;3.10;1.10;;;19.60;61.50;;;;;;5112290;27;45202;-82
2022/05/09 01:26:33;;;;;;;0.98;0.70;;;19.60;62.20;;;;;;5110434;27;45242;-82
2022/05/09 01:29:05;;;;;;;1.23;0.60;;;19.60;61.40;;;;;;5108002;27;45222;-81
2022/05/09 01:31:32;;;;;;;1.45;0.93;;;19.60;61.20;;;;;;5109291;27;45602;-81
2022/05/09 01:34:02;;;;;;;1.30;0.77;;;19.60;61.30;;;;;;5106510;27;45473;-82
2022/05/09 01:36:33;;;;;;;1.10;0.80;;;19.60;61.10;;;;;;5109162;27;47086;-81
2022/05/09 01:39:04;;;;;;;1.58;0.93;;;19.60;61.10;;;;;;5107384;27;45152;-81
2022/05/09 01:41:37;;;;;;;2.13;0.82;;;19.60;60.90;;;;;;5108385;27;45262;-81
2022/05/09 01:44:05;;;;;;;1.88;0.90;;;19.60;60.80;;;;;;5107158;27;45280;-81
2022/05/09 01:46:33;;;;;;;1.35;0.90;;;19.60;61.00;;;;;;5109385;27;46522;-81
2022/05/09 01:51:46;;;;;;;2.35;1.15;;;19.60;60.70;;;;;;5109817;27;45174;-81
2022/05/09 01:54:15;;;;;;;1.98;1.00;;;19.60;60.80;;;;;;5107987;27;45488;-81
2022/05/09 01:56:43;;;;;;;2.25;1.00;;;19.60;60.80;;;;;;5110572;27;45942;-82
2022/05/09 01:59:13;;;;;;;1.00;0.88;;;19.60;60.60;;;;;;5107066;27;45222;-81
2022/05/09 02:01:43;;;;;;;2.63;0.95;;;19.60;60.30;;;;;;5108192;27;45362;-81
2022/05/09 02:04:12;;;;;;;1.65;0.90;;;19.60;60.70;;;;;;5109708;27;45243;-82
2022/05/09 02:06:39;;;;;;;1.02;0.70;;;19.60;60.70;;;;;;5111236;27;46004;-81
2022/05/09 02:09:06;;;;;;;2.10;0.90;;;19.60;60.80;;;;;;5106378;27;45243;-81
2022/05/09 02:11:34;;;;;;;1.67;1.10;;;19.60;60.50;;;;;;5106918;27;45255;-81
2022/05/09 02:14:01;;;;;;;1.80;0.80;;;19.50;60.50;;;;;;5109295;27;45236;-81
2022/05/09 02:16:28;;;;;;;2.55;1.10;;;19.60;60.50;;;;;;5105899;27;46636;-81
2022/05/09 02:18:56;;;;;;;1.30;0.60;;;19.60;60.20;;;;;;5107478;27;45398;-82
2022/05/09 02:21:23;;;;;;;2.63;1.05;;;19.60;60.30;;;;;;5107358;27;45352;-81
2022/05/09 02:23:50;;;;;;;3.05;0.90;;;19.60;60.20;;;;;;5105602;27;45196;-81
2022/05/09 02:26:17;;;;;;;1.75;0.80;;;19.60;60.10;;;;;;5113398;27;45238;-81
2022/05/09 02:28:46;;;;;;;2.60;1.05;;;19.60;60.20;;;;;;5107863;27;45540;-82
2022/05/09 02:31:12;;;;;;;2.25;0.95;;;19.50;60.30;;;;;;5107399;27;45267;-81
2022/05/09 02:33:39;;;;;;;2.15;1.02;;;19.50;60.30;;;;;;5102546;27;45296;-81
2022/05/09 02:36:06;;;;;;;2.05;1.00;;;19.60;60.40;;;;;;5109307;27;45480;-81
2022/05/09 02:38:33;;;;;;;2.72;1.05;;;19.60;60.30;;;;;;5098583;27;45305;-81
2022/05/09 02:41:00;;;;;;;1.88;0.90;;;19.60;60.20;;;;;;5107274;27;45416;-81
2022/05/09 02:43:27;;;;;;;1.40;0.88;;;19.60;60.10;;;;;;5106521;27;45507;-80
2022/05/09 02:46:01;;;;;;;1.65;0.98;;;19.60;61.30;;;;;;5102479;27;45343;-81
2022/05/09 02:48:29;;;;;;;1.85;0.98;;;19.60;60.20;;;;;;5103004;27;45591;-81
2022/05/09 02:50:55;;;;;;;3.58;1.05;;;19.60;60.00;;;;;;5109303;27;45222;-81
2022/05/09 02:53:22;;;;;;;1.80;0.90;;;19.60;60.00;;;;;;5104116;27;45259;-81
2022/05/09 02:55:49;;;;;;;1.80;1.00;;;19.60;59.90;;;;;;5105789;27;47913;-81
2022/05/09 02:58:16;;;;;;;0.85;0.80;;;19.60;60.20;;;;;;5105856;27;45638;-81
2022/05/09 03:00:42;;;;;;;1.50;1.10;;;19.60;60.10;;;;;;5108463;27;45244;-81
2022/05/09 03:05:57;;;;;;;2.33;0.90;;;19.50;61.20;;;;;;5109918;27;45274;-81
2022/05/09 03:08:24;;;;;;;1.90;1.13;;;19.50;60.00;;;;;;5107529;27;45201;-81
2022/05/09 03:10:51;;;;;;;1.80;0.90;;;19.60;60.20;;;;;;5106827;27;45581;-82
2022/05/09 03:13:18;;;;;;;2.55;1.05;;;19.60;60.00;;;;;;5088727;27;45419;-82
2022/05/09 03:15:46;;;;;;;1.33;1.00;;;19.60;60.10;;;;;;5104281;27;47437;-81
2022/05/09 03:18:17;;;;;;;1.20;0.82;;;19.60;60.00;;;;;;5105333;27;45368;-81
2022/05/09 03:20:44;;;;;;;1.85;0.90;;;19.60;60.10;;;;;;5101714;27;45812;-82
2022/05/09 03:23:11;;;;;;;1.75;0.93;;;19.60;60.10;;;;;;5107995;27;45471;-82
2022/05/09 03:25:39;;;;;;;2.97;1.00;;;19.60;60.40;;;;;;5104226;27;47107;-81
2022/05/09 03:28:09;;;;;;;2.08;1.20;;;19.60;60.50;;;;;;5106842;27;45253;-81
2022/05/09 03:30:37;;;;;;;2.15;1.10;;;19.60;60.40;;;;;;5107389;27;45212;-81
2022/05/09 03:33:04;;;;;;;1.42;0.95;;;19.60;60.20;;;;;;5110489;27;45211;-81
2022/05/09 03:35:33;;;;;;;2.10;1.25;;;19.60;60.30;;;;;;5107399;27;47526;-81
2022/05/09 03:38:00;;;;;;;2.25;1.08;;;19.60;60.10;;;;;;5106717;27;46028;-82
2022/05/09 03:40:27;;;;;;;1.58;1.08;;;19.60;60.40;;;;;;5106319;27;45121;-81
2022/05/09 03:42:53;;;;;;;1.90;1.10;;;19.60;60.40;;;;;;5107516;27;45492;-81
2022/05/09 03:45:20;;;;;;;3.17;1.10;;;19.60;60.10;;;;;;5102627;27;45238;-81
2022/05/09 03:47:47;;;;;;;2.22;1.00;;;19.60;60.10;;;;;;5106025;27;45345;-81
2022/05/09 03:50:15;;;;;;;3.38;0.88;;;19.60;60.10;;;;;;5105682;27;45376;-82
2022/05/09 03:52:43;;;;;;;1.83;1.00;;;19.60;60.30;;;;;;5104313;27;45516;-82
2022/05/09 03:55:12;;;;;;;2.33;1.13;;;19.60;60.40;;;;;;5106295;27;48161;-81
2022/05/09 03:57:46;;;;;;;1.55;0.90;;;19.60;60.40;;;;;;5106366;27;45168;-81
2022/05/09 04:00:18;;;;;;;1.40;1.00;;;19.50;60.30;;;;;;5103837;27;45370;-82
2022/05/09 04:02:45;;;;;;;2.20;0.98;;;19.50;60.40;;;;;;5105538;27;45588;-81
2022/05/09 04:05:15;;;;;;;4.13;1.27;;;19.60;60.50;;;;;;5107009;27;46179;-82
2022/05/09 04:07:47;;;;;;;1.80;1.00;;;19.60;60.60;;;;;;5106912;27;45210;-82
2022/05/09 04:10:17;;;;;;;2.63;1.17;;;19.50;60.30;;;;;;5102056;27;45252;-82
2022/05/09 04:12:44;;;;;;;4.00;1.20;;;19.50;60.60;;;;;;5106768;27;45248;-82
2022/05/09 04:17:56;;;;;;;3.90;1.33;;;19.50;60.80;;;;;;5104372;27;45298;-82
2022/05/09 04:20:25;;;;;;;1.10;0.80;;;19.50;61.00;;;;;;5100196;27;45295;-83
2022/05/09 04:22:54;;;;;;;2.10;1.00;;;19.50;61.20;;;;;;5107690;27;45203;-82
2022/05/09 04:25:22;;;;;;;1.80;1.10;;;19.50;61.00;;;;;;5103821;27;47299;-82
2022/05/09 04:27:49;;;;;;;2.72;0.90;;;19.50;61.00;;;;;;5112526;27;45357;-82
2022/05/09 04:30:17;;;;;;;2.65;1.30;;;19.50;61.10;;;;;;5101093;27;45306;-82
2022/05/09 04:32:44;;;;;;;2.42;1.23;;;19.50;61.00;;;;;;5100981;27;45400;-83
2022/05/09 04:35:17;;;;;;;1.65;1.23;;;19.60;61.10;;;;;;5099435;27;46435;-83
2022/05/09 04:37:47;;;;;;;1.83;1.05;;;19.60;60.80;;;;;;5105047;27;45098;-84
2022/05/09 04:40:16;;;;;;;2.17;1.05;;;19.60;60.30;;;;;;5097927;27;45444;-83
2022/05/09 04:42:43;;;;;;;4.22;1.30;;;19.60;59.40;;;;;;5105780;27;45246;-82
2022/05/09 04:45:11;;;;;;;2.80;1.45;;;19.60;58.80;;;;;;5105542;27;45265;-83
2022/05/09 04:47:39;;;;;;;2.53;1.30;;;19.60;58.30;;;;;;5103688;27;45266;-82
2022/05/09 04:50:07;;;;;;;2.40;1.40;;;19.60;58.40;;;;;;5102036;27;45517;-83
2022/05/09 04:52:34;;;;;;;2.05;1.30;;;19.50;58.10;;;;;;5105248;27;45417;-82
2022/05/09 04:55:00;;;;;;;2.17;1.33;;;19.50;58.00;;;;;;5104802;27;45433;-82
2022/05/09 04:57:28;;;;;;;2.75;1.42;;;19.50;57.30;;;;;;5102995;27;45333;-83
2022/05/09 04:59:55;;;;;;;4.70;1.55;;;19.50;58.20;;;;;;5103268;27;45191;-84
2022/05/09 05:02:22;;;;;;;3.95;1.27;;;19.50;59.20;;;;;;5103357;27;45512;-82
2022/05/09 05:04:49;;;;;;;2.85;1.65;;;19.50;59.80;;;;;;5111725;27;45337;-82
2022/05/09 05:07:16;;;;;;;3.05;1.50;;;19.60;60.30;;;;;;5106507;27;45230;-82
2022/05/09 05:09:43;;;;;;;3.80;1.67;;;19.50;60.50;;;;;;5095230;27;45616;-83
2022/05/09 05:12:10;;;;;;;1.67;1.02;;;19.50;60.80;;;;;;5101096;27;45448;-83
2022/05/09 05:14:38;;;;;;;3.47;1.55;;;19.50;61.10;;;;;;5097085;27;46601;-82
2022/05/09 05:17:06;;;;;;;3.25;1.35;;;19.60;61.50;;;;;;5107651;27;45603;-82
2022/05/09 05:19:35;;;;;;;2.20;1.13;;;19.60;61.80;;;;;;5108915;27;45507;-83
2022/05/09 05:22:04;;;;;;;1.50;1.02;;;19.60;61.90;;;;;;5100713;27;45698;-81
2022/05/09 05:24:33;;;;;;;3.20;1.50;;;19.60;61.90;;;;;;5104483;27;45374;-82
2022/05/09 05:27:00;;;;;;;2.35;1.13;;;19.60;62.00;;;;;;5108899;27;45208;-82
2022/05/09 05:29:28;;;;;;;2.40;1.27;;;19.70;62.20;;;;;;5104407;27;45340;-81
2022/05/09 05:31:56;;;;;;;4.90;1.50;;;19.70;62.30;;;;;;5107419;27;45494;-81
2022/05/09 05:34:23;;;;;;;2.33;1.23;;;19.70;62.70;;;;;;5108823;27;47373;-81
2022/05/09 05:36:50;;;;;;;1.83;1.13;;;19.70;62.60;;;;;;5109332;27;45351;-81
2022/05/09 05:39:17;;;;;;;3.75;1.45;;;19.70;62.60;;;;;;5107098;27;45243;-82
2022/05/09 05:41:44;;;;;;;4.25;1.33;;;19.70;63.80;;;;;;5112526;27;45303;-82
2022/05/09 05:44:12;;;;;;;1.88;1.23;;;19.70;62.90;;;;;;5109886;27;46214;-82
2022/05/09 05:46:40;;;;;;;4.25;1.52;;;19.70;63.00;;;;;;5098191;27;45249;-82
2022/05/09 05:49:09;;;;;;;2.47;1.40;;;19.70;63.10;;;;;;5106135;27;45728;-82
2022/05/09 05:51:37;;;;;;;2.67;1.17;;;19.60;63.30;;;;;;5109358;27;45508;-81
2022/05/09 05:54:04;;;;;;;2.53;1.30;;;19.70;63.50;;;;;;5106398;27;45476;-81
2022/05/09 05:56:31;;;;;;;2.78;1.17;;;19.70;63.50;;;;;;5099174;27;45284;-81
2022/05/09 05:58:57;;;;;;;1.92;1.05;;;19.70;63.40;;;;;;5107993;27;45223;-81
2022/05/09 06:01:24;;;;;;;2.40;1.20;;;19.70;63.50;;;;;;5106948;27;45363;-81
2022/05/09 06:03:51;;;;;;;1.75;1.08;;;19.60;63.50;;;;;;5106470;27;46295;-82
2022/05/09 06:06:19;;;;;;;1.83;1.15;;;19.70;63.50;;;;;;5122574;27;45514;-82
2022/05/09 06:08:46;;;;;;;2.85;1.40;;;19.70;63.50;;;;;;5129677;27;45380;-82
2022/05/09 06:11:13;;;;;;;2.42;1.10;;;19.70;63.50;;;;;;5109659;27;45283;-82
2022/05/09 06:13:41;;;;;;;2.10;1.30;;;19.70;63.50;;;;;;5109588;27;47720;-82
2022/05/09 06:16:08;;;;;;;2.20;1.13;;;19.70;63.40;;;;;;5129181;27;45254;-82
2022/05/09 06:18:35;;;;;;;3.25;1.10;;;19.70;63.40;;;;;;5114553;27;45182;-82
2022/05/09 06:21:03;;;;;;;2.35;1.10;;;19.70;63.40;;;;;;5098612;27;45398;-82
2022/05/09 06:23:31;;;;;;;2.88;1.17;;;19.70;63.40;;;;;;5106344;27;45617;-81
2022/05/09 06:25:58;;;;;;;1.50;1.05;;;19.70;63.40;;;;;;5109828;27;45363;-81
2022/05/09 06:28:25;;;;;;;3.10;1.35;;;19.70;63.40;;;;;;5108727;27;45220;-81
2022/05/09 06:30:53;;;;;;;2.78;1.00;;;19.70;63.40;;;;;;5108831;27;45158;-82
2022/05/09 06:33:24;;;;;;;2.95;1.10;;;19.70;63.50;;;;;;5109178;27;47269;-81
2022/05/09 06:35:52;;;;;;;1.95;1.20;;;19.70;63.60;;;;;;5107979;27;45605;-82
2022/05/09 06:38:20;;;;;;;1.70;1.10;;;19.70;63.40;;;;;;5108424;27;45168;-82
2022/05/09 06:40:48;;;;;;;2.45;1.20;;;19.70;63.50;;;;;;5108044;27;45473;-82
2022/05/09 06:43:16;;;;;;;2.40;1.13;;;19.70;63.60;;;;;;5107533;27;46608;-82
2022/05/09 06:45:43;;;;;;;2.88;1.17;;;19.70;63.60;;;;;;5126452;27;46869;-81
2022/05/09 06:48:10;;;;;;;1.65;1.00;;;19.70;63.60;;;;;;5109810;27;45342;-81
2022/05/09 06:50:39;;;;;;;2.65;1.20;;;19.70;63.60;;;;;;5102592;27;45422;-81
2022/05/09 06:53:06;;;;;;;1.70;1.20;;;19.70;63.60;;;;;;5105610;27;46251;-81
2022/05/09 06:55:33;;;;;;;2.05;1.13;;;19.70;63.60;;;;;;5107874;27;45400;-82
2022/05/09 06:58:05;;;;;;;2.25;0.95;;;19.70;63.70;;;;;;5106297;27;45360;-82
2022/05/09 07:00:32;;;;;;;1.40;1.00;;;19.70;63.70;;;;;;5108465;27;45267;-81
2022/05/09 07:02:59;;;;;;;2.63;1.00;;;19.70;63.80;;;;;;5108371;27;46942;-81
2022/05/09 07:05:26;;;;;;;1.35;1.00;;;19.70;63.70;;;;;;5110923;27;45419;-81
2022/05/09 07:07:53;;;;;;;2.08;1.02;;;19.70;63.80;;;;;;5109413;27;45352;-81
2022/05/09 07:10:20;;;;;;;2.10;1.00;;;19.70;63.90;;;;;;5098960;27;45272;-81
2022/05/09 07:12:48;;;;;;;2.25;1.15;;;19.70;63.80;;;;;;5107278;27;47080;-81
2022/05/09 07:15:20;;;;;;;1.55;0.95;;;19.70;63.90;;;;;;5107930;27;45167;-81
2022/05/09 07:17:47;;;;;;;1.77;1.05;;;19.70;63.80;;;;;;5108277;27;45226;-81
2022/05/09 07:20:15;;;;;;;2.08;1.08;;;19.70;64.00;;;;;;5108081;27;45363;-81
2022/05/09 07:22:42;;;;;;;2.28;1.00;;;19.70;64.00;;;;;;5107968;27;45517;-81
2022/05/09 07:25:12;;;;;;;2.05;0.88;;;19.70;64.00;;;;;;5107737;27;45256;-81
2022/05/09 07:27:42;;;;;;;2.50;1.00;;;19.70;64.00;;;;;;5113095;27;45249;-81
2022/05/09 07:30:10;;;;;;;1.67;0.95;;;19.70;64.00;;;;;;5128858;27;45485;-81
2022/05/09 07:32:38;;;;;;;2.95;1.20;;;19.70;64.10;;;;;;5115224;27;45228;-81
2022/05/09 07:35:06;;;;;;;1.70;1.00;;;19.80;64.20;;;;;;5105781;27;45214;-81
2022/05/09 07:37:33;;;;;;;1.00;0.85;;;19.70;64.10;;;;;;5108385;27;45283;-81
2022/05/09 07:40:00;;;;;;;2.03;1.05;;;19.70;64.20;;;;;;5106846;27;45194;-81
2022/05/09 07:42:27;;;;;;;1.20;0.90;;;19.70;64.30;;;;;;5106624;27;46366;-81
2022/05/09 07:44:56;;;;;;;2.08;0.93;;;19.70;64.50;;;;;;5107449;27;45607;-81
2022/05/09 07:47:23;;;;;;;1.27;0.70;;;19.70;64.60;;;;;;5100848;27;46578;-82
2022/05/09 07:49:51;;;;;;;1.48;0.90;;;19.70;64.50;;;;;;5105053;27;45300;-82
2022/05/09 07:52:18;;;;;;;1.75;1.00;;;19.70;64.60;;;;;;5094867;27;46594;-82
2022/05/09 07:54:46;;;;;;;1.77;1.00;;;19.70;64.80;;;;;;5100184;27;45349;-81
2022/05/09 07:57:13;;;;;;;2.30;1.08;;;19.70;64.90;;;;;;5101907;27;45784;-82
2022/05/09 07:59:40;;;;;;;1.45;0.80;;;19.70;65.10;;;;;;5090149;27;46143;-82
2022/05/09 08:02:07;;;;;;;2.85;1.10;;;19.70;65.10;;;;;;5106258;27;47578;-81
2022/05/09 08:04:34;;;;;;;1.10;0.98;;;19.70;65.20;;;;;;5105120;27;45171;-81
2022/05/09 08:07:03;;;;;;;3.10;1.08;;;19.70;65.20;;;;;;5109705;27;45162;-82
2022/05/09 08:09:30;;;;;;;5.50;1.10;;;19.70;65.30;;;;;;5103834;27;45488;-81
2022/05/09 08:11:58;;;;;;;2.28;0.77;;;19.70;65.20;;;;;;5106354;27;48341;-81
2022/05/09 08:14:25;;;;;;;1.60;0.90;;;19.70;65.30;;;;;;5105192;27;45475;-81
2022/05/09 08:16:52;;;;;;;2.72;1.00;;;19.70;65.40;;;;;;5103228;27;45430;-81
2022/05/09 08:19:19;;;;;;;1.17;0.88;;;19.70;65.30;;;;;;5103986;27;45554;-81
2022/05/09 08:21:49;;;;;;;2.28;0.98;;;19.70;65.40;;;;;;5102391;27;47184;-81
2022/05/09 08:24:18;;;;;;;2.60;1.10;;;19.70;65.50;;;;;;5110673;27;45172;-81
2022/05/09 08:26:45;;;;;;;1.70;0.90;;;19.70;65.60;;;;;;5103696;27;45616;-81
2022/05/09 08:29:12;;;;;;;2.00;0.75;;;19.70;65.50;;;;;;5104331;27;45666;-81
2022/05/09 08:31:39;;;;;;;2.40;0.80;;;19.70;65.50;;;;;;5106768;27;46302;-81
2022/05/09 08:34:06;;;;;;;1.65;0.98;;;19.70;65.70;;;;;;5107796;27;45385;-82
2022/05/09 08:36:48;;;;;;;1.42;1.00;;;19.70;65.70;;;;;;5107040;27;45294;-81
2022/05/09 08:39:17;;;;;;;1.63;1.05;;;19.70;65.70;;;;;;5103121;27;45496;-81
2022/05/09 08:41:57;;;;;;;1.55;1.00;;;19.70;65.80;;;;;;5109137;27;45525;-82
2022/05/09 08:44:54;;;;;;;1.20;1.00;;;19.70;66.00;;;;;;5098766;27;45617;-82
2022/05/09 08:47:38;;;;;;;3.90;1.00;;;19.70;66.20;;;;;;5106751;27;45105;-81
2022/05/09 08:50:15;;;;;;;3.08;1.10;;;19.70;67.30;;;;;;5106144;27;45339;-81
2022/05/09 08:52:49;;;;;;;1.13;0.80;;;19.70;66.20;;;;;;5108997;27;45954;-81
2022/05/09 08:55:23;;;;;;;1.23;0.90;;;19.70;66.10;;;;;;5108229;27;45218;-81
2022/05/09 08:57:57;;;;;;;1.98;1.10;;;19.70;66.10;;;;;;5108203;27;45485;-82
2022/05/09 09:00:29;;;;;;;2.15;1.15;;;19.80;66.20;;;;;;5098883;27;45452;-81
2022/05/09 09:03:01;;;;;;;1.67;0.95;;;19.70;66.30;;;;;;5108164;27;47455;-81
2022/05/09 09:05:34;;;;;;;1.88;1.10;;;19.70;66.40;;;;;;5108448;27;45618;-81
2022/05/09 09:08:21;;;;;;;1.48;0.90;;;19.70;66.50;;;;;;5108568;27;45211;-82
2022/05/09 09:11:01;;;;;;;2.13;1.30;;;19.70;66.80;;;;;;5110563;27;45311;-81
2022/05/09 09:13:48;;;;;;;3.17;1.00;;;19.80;66.80;;;;;;5103822;27;45575;-81
2022/05/09 09:16:24;;;;;;;1.92;1.10;;;19.80;66.90;;;;;;5106647;27;45249;-82
2022/05/09 09:19:09;;;;;;;1.80;1.08;;;19.80;67.00;;;;;;5110184;27;45351;-81
2022/05/09 09:21:45;;;;;;;2.35;0.90;;;19.80;66.90;;;;;;5101133;27;46335;-81
2022/05/09 09:24:30;;;;;;;2.00;0.95;;;19.80;67.00;;;;;;5107672;27;47834;-81
2022/05/09 09:27:07;;;;;;;2.35;1.23;;;19.80;67.10;;;;;;5108537;27;45195;-81
2022/05/09 09:29:38;;;;;;;2.45;1.15;;;19.80;67.20;;;;;;5103745;27;45286;-81
2022/05/09 09:32:09;;;;;;;1.40;1.05;;;19.80;67.30;;;;;;5108125;27;45562;-81
2022/05/09 09:34:43;;;;;;;3.50;0.95;;;19.70;67.40;;;;;;5107304;27;45388;-81
2022/05/09 09:37:14;;;;;;;2.20;1.10;;;19.80;67.60;;;;;;5105850;27;45900;-81
2022/05/09 09:39:41;;;;;;;1.83;1.10;;;19.70;67.70;;;;;;5107185;27;45220;-81
2022/05/09 09:42:09;;;;;;;1.65;1.02;;;19.80;67.70;;;;;;5107485;27;45265;-81
2022/05/09 09:44:41;;;;;;;1.23;1.10;;;19.80;67.80;;;;;;5102970;27;48187;-81
2022/05/09 09:47:11;;;;;;;1.25;0.82;;;19.80;67.80;;;;;;5102000;27;46162;-82
2022/05/09 09:49:40;;;;;;;1.60;1.00;;;19.80;68.00;;;;;;5096193;27;45380;-81
2022/05/09 09:52:26;;;;;;;1.73;0.90;;;19.70;67.80;;;;;;5107556;27;45363;-81
2022/05/09 09:54:59;;;;;;;2.05;1.10;;;19.70;67.80;;;;;;5105072;27;45356;-82
2022/05/09 09:57:32;;;;;;;1.48;0.90;;;19.70;67.80;;;;;;5103551;27;45458;-82
2022/05/09 10:00:17;;;;;;;1.67;1.00;;;19.70;68.00;;;;;;5107180;27;45436;-82
2022/05/09 10:02:44;;;;;;;1.02;0.90;;;19.70;68.00;;;;;;5105134;27;45443;-82
2022/05/09 10:05:15;;;;;;;1.73;1.02;;;19.70;67.80;;;;;;5103907;27;45310;-83
2022/05/09 10:07:44;;;;;;;2.00;0.90;;;19.80;68.00;;;;;;5112947;27;45355;-82
2022/05/09 10:10:13;;;;;;;1.63;1.00;;;19.80;68.00;;;;;;5108344;27;45278;-83
2022/05/09 10:12:44;;;;;;;2.92;1.35;;;19.70;68.00;;;;;;5108332;27;45248;-82
2022/05/09 10:15:28;;;;;;;2.90;1.40;;;19.70;68.10;;;;;;5107761;27;46316;-80
2022/05/09 10:17:55;;;;;;;1.60;1.05;;;19.80;68.20;;;;;;5108230;27;46233;-82
2022/05/09 10:20:35;;;;;;;1.67;1.27;;;19.80;67.70;;;;;;5104836;27;45760;-82
2022/05/09 10:26:02;;;;;;;2.00;1.27;;;19.70;67.60;;;;;;5107047;27;45744;-81
2022/05/09 10:28:35;;;;;;;1.17;1.08;;;19.70;67.50;;;;;;5099626;27;45459;-82
2022/05/09 10:31:12;;;;;;;1.98;1.15;;;19.70;67.50;;;;;;5109342;27;45465;-82
2022/05/09 10:33:47;;;;;;;2.13;1.25;;;19.70;67.70;;;;;;5107947;27;45224;-82
2022/05/09 10:36:21;;;;;;;1.70;1.27;;;19.80;67.60;;;;;;5101735;27;45425;-80
2022/05/09 10:38:52;;;;;;;2.17;1.15;;;19.80;67.70;;;;;;5105772;27;45263;-79
2022/05/09 10:41:34;;;;;;;2.15;1.38;;;19.80;67.80;;;;;;5102992;27;45204;-80
2022/05/09 10:44:08;;;;;;;1.90;1.27;;;19.80;68.20;;;;;;5103769;27;45449;-80
2022/05/09 10:46:41;;;;;;;1.65;1.20;;;19.80;68.20;;;;;;5106304;27;45425;-80
2022/05/09 10:49:19;;;;;;;1.55;1.10;;;19.80;68.10;;;;;;5104757;27;45347;-80
2022/05/09 10:51:57;;;;;;;1.25;1.10;;;19.80;68.20;;;;;;5099987;27;45373;-80
2022/05/09 10:54:31;;;;;;;1.80;1.38;;;19.80;69.40;;;;;;5099035;27;45504;-80
2022/05/09 10:57:06;;;;;;;1.75;1.30;;;19.80;68.30;;;;;;5102581;27;45733;-80
2022/05/09 10:59:39;;;;;;;2.30;1.17;;;19.80;68.20;;;;;;5107686;27;45505;-80
2022/05/09 11:02:11;;;;;;;1.40;1.25;;;19.80;68.40;;;;;;5107257;27;45632;-80
2022/05/09 11:04:38;;;;;;;1.77;1.17;;;19.80;68.30;;;;;;5105551;27;45415;-79
2022/05/09 11:07:17;;;;;;;1.75;1.08;;;19.80;68.10;;;;;;5104995;27;47844;-80
2022/05/09 11:09:54;;;;;;;1.08;0.90;;;19.80;68.30;;;;;;5103950;27;45213;-80
2022/05/09 11:12:38;;;;;;;2.63;1.20;;;19.80;68.20;;;;;;5099191;27;45300;-79
2022/05/09 11:15:18;;;;;;;1.85;1.23;;;19.80;68.30;;;;;;5105652;27;45343;-80
2022/05/09 11:17:56;;;;;;;2.25;1.00;;;19.80;68.00;;;;;;5103209;27;45978;-80
2022/05/09 11:20:30;;;;;;;1.00;0.95;;;19.80;68.00;;;;;;5099423;27;45363;-80
2022/05/09 11:23:20;;;;;;;1.35;1.25;;;19.80;67.90;;;;;;5104936;27;45282;-80
2022/05/09 11:25:58;;;;;;;1.30;1.20;;;19.80;68.20;;;;;;5105815;27;45308;-80
2022/05/09 11:28:44;;;;;;;2.00;1.13;;;19.80;68.20;;;;;;5102536;27;46339;-80
2022/05/09 11:31:22;;;;;;;2.38;1.40;;;19.80;68.30;;;;;;5108043;27;45458;-80
2022/05/09 11:34:01;;;;;;;1.38;1.00;;;19.90;68.20;;;;;;5106602;27;45244;-80
2022/05/09 11:36:40;;;;;;;1.40;1.00;;;19.90;68.20;;;;;;5104698;27;45685;-80
2022/05/09 11:39:13;;;;;;;1.23;1.00;;;19.80;68.00;;;;;;5101730;27;46186;-80
2022/05/09 11:41:44;;;;;;;1.42;1.25;;;19.90;68.00;;;;;;5102411;27;45364;-80
2022/05/09 11:44:17;;;;;;;1.50;1.02;;;19.90;68.00;;;;;;5105793;27;45194;-81
2022/05/09 11:47:13;;;;;;;0.90;0.80;;;19.80;67.90;;;;;;5102869;27;45315;-80
2022/05/09 11:50:03;;;;;;;1.42;1.20;;;19.80;68.00;;;;;;5103091;27;46460;-80
2022/05/09 11:52:38;;;;;;;2.45;1.00;;;19.80;68.10;;;;;;5106314;27;45208;-80
2022/05/09 11:55:09;;;;;;;1.13;1.00;;;19.80;68.00;;;;;;5106021;27;45163;-80
2022/05/09 11:57:39;;;;;;;1.30;1.08;;;19.80;68.90;;;;;;5106959;27;45839;-79
2022/05/09 12:00:10;;;;;;;1.42;1.30;;;19.80;67.90;;;;;;5104301;27;45561;-80
2022/05/09 12:02:47;;;;;;;2.42;1.15;;;19.80;68.20;;;;;;5104793;27;46570;-80
2022/05/09 12:05:43;;;;;;;1.90;1.02;;;19.80;68.20;;;;;;5106448;27;45216;-80
2022/05/09 12:08:15;;;;;;;1.55;0.95;;;19.80;68.10;;;;;;5103618;27;45165;-81
2022/05/09 12:10:44;;;;;;;2.05;1.08;;;19.80;68.10;;;;;;5105423;27;46201;-80
2022/05/09 12:13:15;;;;;;;1.67;1.08;;;19.90;68.10;;;;;;5106830;27;45199;-80
2022/05/09 12:15:50;;;;;;;1.27;1.10;;;19.80;68.00;;;;;;5106216;27;45412;-80
2022/05/09 12:18:28;;;;;;;1.05;0.90;;;19.90;68.10;;;;;;5107083;27;45561;-80
2022/05/09 12:21:10;;;;;;;2.92;0.90;;;19.80;68.20;;;;;;5106700;27;45629;-80
2022/05/09 12:24:10;;;;;;;1.58;1.02;;;19.80;68.10;;;;;;5106645;27;45145;-80
2022/05/09 12:26:39;;;;;;;2.10;1.40;;;19.90;68.20;;;;;;5097989;27;45279;-80
2022/05/09 12:29:46;;;;;;;1.55;1.20;;;19.90;68.40;;;;;;5108390;27;45485;-80
2022/05/09 12:32:16;;;;;;;1.42;1.15;;;19.90;68.60;;;;;;5109899;27;45494;-80
2022/05/09 12:34:46;;;;;;;1.52;1.05;;;19.80;68.60;;;;;;5109511;27;45387;-79
2022/05/09 12:37:16;;;;;;;1.20;1.10;;;19.80;68.40;;;;;;5109741;27;45576;-80
2022/05/09 12:39:46;;;;;;;1.20;0.90;;;19.80;68.60;;;;;;5109213;27;45256;-80
2022/05/09 12:42:26;;;;;;;1.17;1.08;;;19.80;69.00;;;;;;5107801;27;45306;-80
2022/05/09 12:44:56;;;;;;;1.20;1.10;;;19.80;68.70;;;;;;5110271;27;45377;-80
2022/05/09 12:47:26;;;;;;;2.22;1.10;;;19.80;69.10;;;;;;5103313;27;45136;-80
2022/05/09 12:50:00;;;;;;;1.27;1.10;;;19.80;68.90;;;;;;5105090;27;45315;-80
2022/05/09 12:52:30;;;;;;;2.08;1.10;;;19.80;68.80;;;;;;5104718;27;45987;-80
2022/05/09 12:57:44;;;;;;;1.38;1.02;;;19.80;68.70;;;;;;5108921;27;45199;-80
2022/05/09 13:00:15;;;;;;;0.90;0.90;;;19.80;68.60;;;;;;5106981;27;45242;-80
2022/05/09 13:02:42;;;;;;;1.58;1.02;;;19.80;68.50;;;;;;5110979;27;45493;-80
2022/05/09 13:05:13;;;;;;;2.00;1.10;;;19.80;68.40;;;;;;5109985;27;45274;-80
2022/05/09 13:07:54;;;;;;;1.27;1.17;;;19.80;68.40;;;;;;5113672;27;45229;-80
2022/05/09 13:10:21;;;;;;;1.83;1.23;;;19.80;68.40;;;;;;5101064;27;45315;-80
2022/05/09 13:12:48;;;;;;;1.58;1.20;;;19.80;68.30;;;;;;5108067;27;45569;-80
2022/05/09 13:15:18;;;;;;;1.75;1.20;;;19.80;68.20;;;;;;5106794;27;46098;-80
2022/05/09 13:17:48;;;;;;;1.25;1.08;;;19.80;68.20;;;;;;5106888;27;45154;-81
2022/05/09 13:20:19;;;;;;;1.27;0.98;;;19.90;68.40;;;;;;5110013;27;45336;-80